RJSARJEC

Guest
Details From RJSA - AOMORI
To RJEC - Asahikawa
Flight Number -
Tags generated
Created
Modified
Stats Distance 193 nm / 358 km
Max Altitude 21,800 ft / 6,645 m
Waypoints 4
Social Downloads 0
Likes 0
Share VATSIM

Download

Looking for another format? Having issues loading an existing format? Contact us
Advertisement - Login to hide

Notes

Basic altitude profile: - Ascent Rate: 2500ft/min - Ascent Speed: 250kts - Cruise Altitude: 35000ft - Cruise Speed: 420kts - Descent Rate: 1500ft/min - Descent Speed: 250kts Options: - Use NATs: yes - Use PACOTS: yes - Use low airways: yes - Use high airways: yes

Route

RJSA MRE10 Y13 NASEL RJEC

ID Type Via Altitude Latitude Longitude Leg Dist Tot Dist Heading (true) Name
O RJSA APT - 0 ft / 0 m 40.73327˚ 140.68859˚ - 0 nm - AOMORI
MRE10 FIX - 3,700 ft / 1,128 m 40.89512˚ 140.78181˚ 10 nm 10 nm 24° / 24° -
NASEL FIX Y13 (AWY-LO) 21,800 ft / 6,645 m 42.15346˚ 141.40985˚ 80 nm 91 nm 20° / 21° -
O RJEC APT - 0 ft / 0 m 43.67072˚ 142.44758˚ 101 nm 193 nm 26° / 27° Asahikawa

Altitude Profile

Advertisement - Login to hide

Weather


0- 5 10 15 20 25 30 35+ Temperature / ° C

Clouds and Precipitation
Forecast for 2018-05-27 00:00 UTC. Updated 5 hours ago

Ground ~20,000 ft ~40,000 ft Winds

RJSA

Details ICAO RJSA (AOJ)
Name AOMORI
Region Japan
Timezone Asia/Tokyo (UTC+9.0)
Stats Elevation 664 ft / 202 m (AMSL)
Location 40.733272° 140.688594°
Runways 1
Magnetic Variation 8.960° W

METAR

RJSA 270300Z 04007KT 360V090 9999 FEW030 BKN/// 16/07 Q1011

Decode

TAF

TAF RJSA 262305Z 2700/2806 04008KT 9999 FEW030

Decode

Departure Runways

ID Width Length Bearing (true) Bearing (mag) Surface Threshold Offset Overrun Length
06 200 ft / 61 m 9,838 ft / 2,999 m 51.79° 60.75° Asphalt 0 ft / 0 m 200 ft / 61 m
24 200 ft / 61 m 9,838 ft / 2,999 m 231.81° 240.77° Asphalt 0 ft / 0 m 200 ft / 61 m

RJEC

Details ICAO RJEC (AKJ)
Name Asahikawa
Region Japan
Timezone Asia/Tokyo (UTC+9.0)
Stats Elevation 721 ft / 220 m (AMSL)
Location 43.670716° 142.447581°
Runways 1
Magnetic Variation 9.528° W

METAR

RJEC 270300Z 35005KT 300V040 9999 FEW025 SCT040 14/06 Q1011

Decode

TAF

TAF TAF RJEC 262307Z 2700/2806 33010KT 9999 FEW030 SCT050 BECMG 2715/2718 17005KT BECMG 2800/2803 28008KT

Decode

Destination Runways

ID Width Length Bearing (true) Bearing (mag) Surface Threshold Offset Overrun Length
16 200 ft / 61 m 8,205 ft / 2,501 m 154.26° 163.79° Asphalt 0 ft / 0 m 210 ft / 64 m
34 200 ft / 61 m 8,205 ft / 2,501 m 334.27° 343.80° Asphalt 0 ft / 0 m 200 ft / 61 m

Approach Navaids

Runway Type Ident Frequency Range Bearing (true) Bearing (mag) Slope Elevation
34 Localiser IAW 110.50 MHz 18 nm / 33 km 334.24° 343.77° - 721 ft / 220 m (AMSL)
34 Glidescope IAW 110.50 MHz 10 nm / 19 km 334.26° 343.79° 3.00° 729 ft / 222 m (AMSL)
34 DME IAW 110.50 MHz 18 nm / 33 km - - - 721 ft / 220 m (AMSL)